Time;durP1;ratioP1;P1;durP2;ratioP2;P2;SDS_P1;SDS_P2;PMS_P1;PMS_P2;Temp;Humidity;BMP_temperature;BMP_pressure;BME280_temperature;BME280_humidity;BME280_pressure;Samples;Min_cycle;Max_cycle;Signal;HPM_P1;HPM_P2
2022/04/18 00:01:38;;;;;;;;;;;;;;;;;;5093755;28;19916;-70
2022/04/18 00:04:04;;;;;;;;;;;;;;;;;;5075460;28;19908;-70
2022/04/18 00:06:35;;;;;;;;;;;;;;;;;;5093352;28;19912;-70
2022/04/18 00:09:01;;;;;;;;;;;;;;;;;;5093867;28;20006;-69
2022/04/18 00:11:27;;;;;;;;;;;;;;;;;;5093636;28;19958;-70
2022/04/18 00:13:53;;;;;;;;;;;;;;;;;;5093157;28;19982;-70
2022/04/18 00:16:19;;;;;;;;;;;;;;;;;;5094120;28;20399;-70
2022/04/18 00:18:45;;;;;;;;;;;;;;;;;;5093141;28;19995;-70
2022/04/18 00:21:11;;;;;;;;;;;;;;;;;;5093616;28;19939;-69
2022/04/18 00:23:37;;;;;;;;;;;;;;;;;;5093340;28;19920;-69
2022/04/18 00:26:03;;;;;;;;;;;;;;;;;;5093044;28;19920;-69
2022/04/18 00:28:29;;;;;;;;;;;;;;;;;;5095781;28;20360;-69
2022/04/18 00:30:55;;;;;;;;;;;;;;;;;;5097192;28;19911;-69
2022/04/18 00:33:21;;;;;;;;;;;;;;;;;;5096748;28;19995;-70
2022/04/18 00:35:47;;;;;;;;;;;;;;;;;;5097120;28;20283;-70
2022/04/18 00:38:13;;;;;;;;;;;;;;;;;;5097110;28;19935;-70
2022/04/18 00:40:39;;;;;;;;;;;;;;;;;;5096988;28;19931;-70
2022/04/18 00:43:05;;;;;;;;;;;;;;;;;;5078835;28;19908;-69
2022/04/18 00:45:31;;;;;;;;;;;;;;;;;;5078646;28;19916;-70
2022/04/18 00:47:57;;;;;;;;;;;;;;;;;;5096494;28;20360;-70
2022/04/18 00:50:23;;;;;;;;;;;;;;;;;;5078676;28;19983;-69
2022/04/18 00:52:49;;;;;;;;;;;;;;;;;;5096850;28;19920;-69
2022/04/18 00:55:15;;;;;;;;;;;;;;;;;;5096324;28;19995;-70
2022/04/18 00:57:41;;;;;;;;;;;;;;;;;;5096715;28;19914;-70
2022/04/18 01:00:07;;;;;;;;;;;;;;;;;;5096619;28;19908;-70
2022/04/18 01:02:33;;;;;;;;;;;;;;;;;;5096304;28;19908;-70
2022/04/18 01:04:59;;;;;;;;;;;;;;;;;;5078341;28;19923;-70
2022/04/18 01:07:25;;;;;;;;;;;;;;;;;;5096526;28;19943;-69
2022/04/18 01:09:51;;;;;;;;;;;;;;;;;;5077921;28;20412;-69
2022/04/18 01:12:16;;;;;;;;;;;;;;;;;;5096574;28;19922;-69
2022/04/18 01:14:42;;;;;;;;;;;;;;;;;;5096415;28;20356;-70
2022/04/18 01:17:08;;;;;;;;;;;;;;;;;;5095929;28;19915;-70
2022/04/18 01:19:34;;;;;;;;;;;;;;;;;;5096286;28;20287;-69
2022/04/18 01:22:00;;;;;;;;;;;;;;;;;;5095896;28;19908;-69
2022/04/18 01:29:56;;;;;;;;;;;;;;;;;;5095739;28;19915;-69
2022/04/18 01:32:22;;;;;;;;;;;;;;;;;;5077896;28;19908;-69
2022/04/18 01:34:48;;;;;;;;;;;;;;;;;;5096012;28;19912;-69
2022/04/18 01:37:14;;;;;;;;;;;;;;;;;;5077436;28;19919;-70
2022/04/18 01:39:40;;;;;;;;;;;;;;;;;;5077489;28;20257;-70
2022/04/18 01:42:06;;;;;;;;;;;;;;;;;;5095799;28;19974;-69
2022/04/18 01:44:32;;;;;;;;;;;;;;;;;;5095322;28;19969;-70
2022/04/18 01:46:58;;;;;;;;;;;;;;;;;;5095691;28;19991;-70
2022/04/18 01:49:24;;;;;;;;;;;;;;;;;;5096029;28;19918;-69
2022/04/18 01:51:50;;;;;;;;;;;;;;;;;;5095316;28;19908;-69
2022/04/18 01:54:16;;;;;;;;;;;;;;;;;;5095694;28;19915;-70
2022/04/18 01:56:42;;;;;;;;;;;;;;;;;;5095548;28;20315;-70
2022/04/18 01:59:08;;;;;;;;;;;;;;;;;;5095111;28;19961;-70
2022/04/18 02:01:34;;;;;;;;;;;;;;;;;;5095964;28;20356;-69
2022/04/18 02:04:00;;;;;;;;;;;;;;;;;;5095502;28;19908;-70
2022/04/18 02:06:26;;;;;;;;;;;;;;;;;;5094903;28;19916;-69
2022/04/18 02:08:52;;;;;;;;;;;;;;;;;;5077140;28;19933;-70
2022/04/18 02:11:18;;;;;;;;;;;;;;;;;;5094885;28;19908;-69
2022/04/18 02:13:45;;;;;;;;;;;;;;;;;;5095228;28;20324;-69
2022/04/18 02:16:11;;;;;;;;;;;;;;;;;;5095190;28;19915;-69
2022/04/18 02:18:37;;;;;;;;;;;;;;;;;;5094677;28;19914;-69
2022/04/18 02:21:03;;;;;;;;;;;;;;;;;;5076839;28;19915;-69
2022/04/18 02:23:29;;;;;;;;;;;;;;;;;;5094881;28;19916;-69
2022/04/18 02:25:55;;;;;;;;;;;;;;;;;;5076352;28;19969;-69
2022/04/18 02:28:21;;;;;;;;;;;;;;;;;;5095017;28;19908;-69
2022/04/18 02:30:47;;;;;;;;;;;;;;;;;;5094926;28;19909;-69
2022/04/18 02:33:13;;;;;;;;;;;;;;;;;;5076264;28;20390;-69
2022/04/18 02:35:39;;;;;;;;;;;;;;;;;;5094841;28;19915;-69
2022/04/18 02:38:05;;;;;;;;;;;;;;;;;;5095334;28;19908;-69
2022/04/18 02:40:31;;;;;;;;;;;;;;;;;;5094410;28;19976;-70
2022/04/18 02:42:57;;;;;;;;;;;;;;;;;;5094670;28;20382;-69
2022/04/18 02:45:24;;;;;;;;;;;;;;;;;;5076413;28;20306;-69
2022/04/18 02:47:50;;;;;;;;;;;;;;;;;;5094228;28;19908;-69
2022/04/18 02:50:16;;;;;;;;;;;;;;;;;;5094167;28;19908;-69
2022/04/18 02:52:42;;;;;;;;;;;;;;;;;;5094565;28;20017;-69
2022/04/18 02:55:08;;;;;;;;;;;;;;;;;;5094131;28;19923;-69
2022/04/18 02:57:34;;;;;;;;;;;;;;;;;;5094478;28;19908;-69
2022/04/18 03:00:00;;;;;;;;;;;;;;;;;;5094718;28;19914;-69
2022/04/18 03:02:26;;;;;;;;;;;;;;;;;;5093978;28;19991;-69
2022/04/18 03:04:52;;;;;;;;;;;;;;;;;;5094307;28;19922;-70
2022/04/18 03:07:19;;;;;;;;;;;;;;;;;;5076157;28;19908;-69
2022/04/18 03:09:45;;;;;;;;;;;;;;;;;;5094029;28;19908;-69
2022/04/18 03:12:11;;;;;;;;;;;;;;;;;;5094519;28;19915;-69
2022/04/18 03:14:37;;;;;;;;;;;;;;;;;;5075653;28;19957;-69
2022/04/18 03:17:03;;;;;;;;;;;;;;;;;;5094158;28;20360;-69
2022/04/18 03:19:29;;;;;;;;;;;;;;;;;;5076025;28;20345;-69
2022/04/18 03:21:55;;;;;;;;;;;;;;;;;;5093735;28;19944;-69
2022/04/18 03:24:21;;;;;;;;;;;;;;;;;;5093985;28;19963;-69
2022/04/18 03:26:47;;;;;;;;;;;;;;;;;;5094536;28;19912;-69
2022/04/18 03:29:13;;;;;;;;;;;;;;;;;;5094001;28;19964;-70
2022/04/18 03:31:39;;;;;;;;;;;;;;;;;;5076133;28;19908;-70
2022/04/18 03:34:05;;;;;;;;;;;;;;;;;;5094037;28;20324;-69
2022/04/18 03:42:02;;;;;;;;;;;;;;;;;;5094115;28;20284;-69
2022/04/18 03:44:28;;;;;;;;;;;;;;;;;;5075294;28;20006;-69
2022/04/18 03:46:54;;;;;;;;;;;;;;;;;;5093906;28;19958;-69
2022/04/18 03:49:20;;;;;;;;;;;;;;;;;;5093838;28;20003;-69
2022/04/18 03:51:46;;;;;;;;;;;;;;;;;;5093433;28;19908;-70
2022/04/18 03:54:12;;;;;;;;;;;;;;;;;;5093792;28;19914;-70
2022/04/18 03:56:38;;;;;;;;;;;;;;;;;;5093306;28;19908;-70
2022/04/18 03:59:04;;;;;;;;;;;;;;;;;;5093746;28;20275;-70
2022/04/18 04:01:30;;;;;;;;;;;;;;;;;;5094532;28;19908;-70
2022/04/18 04:03:56;;;;;;;;;;;;;;;;;;5097369;28;19912;-70
2022/04/18 04:06:22;;;;;;;;;;;;;;;;;;5079502;28;20322;-73
2022/04/18 04:08:48;;;;;;;;;;;;;;;;;;5098022;28;19907;-73
2022/04/18 04:11:14;;;;;;;;;;;;;;;;;;5097639;28;20010;-72
2022/04/18 04:13:40;;;;;;;;;;;;;;;;;;5097642;28;20418;-73
2022/04/18 04:16:06;;;;;;;;;;;;;;;;;;5097520;28;20423;-73
2022/04/18 04:18:32;;;;;;;;;;;;;;;;;;5078811;28;19939;-73
2022/04/18 04:20:58;;;;;;;;;;;;;;;;;;5097634;28;19908;-73
2022/04/18 04:23:24;;;;;;;;;;;;;;;;;;5097676;28;19908;-72
2022/04/18 04:25:50;;;;;;;;;;;;;;;;;;5097103;28;19923;-73
2022/04/18 04:28:16;;;;;;;;;;;;;;;;;;5097356;28;20413;-72
2022/04/18 04:30:42;;;;;;;;;;;;;;;;;;5097444;28;19908;-73
2022/04/18 04:33:08;;;;;;;;;;;;;;;;;;5078703;28;19922;-73
2022/04/18 04:35:34;;;;;;;;;;;;;;;;;;5097108;28;20307;-73
2022/04/18 04:38:00;;;;;;;;;;;;;;;;;;5097106;28;19908;-73
2022/04/18 04:40:27;;;;;;;;;;;;;;;;;;5078446;28;20287;-73
2022/04/18 04:42:53;;;;;;;;;;;;;;;;;;5097248;28;19916;-73
2022/04/18 04:45:19;;;;;;;;;;;;;;;;;;5096911;28;20501;-73
2022/04/18 04:47:45;;;;;;;;;;;;;;;;;;5096547;28;19908;-73
2022/04/18 04:50:11;;;;;;;;;;;;;;;;;;5078718;28;20427;-74
2022/04/18 04:52:36;;;;;;;;;;;;;;;;;;5096831;28;19908;-73
2022/04/18 04:55:03;;;;;;;;;;;;;;;;;;5096562;28;19915;-73
2022/04/18 04:57:28;;;;;;;;;;;;;;;;;;5096943;28;20391;-73
2022/04/18 04:59:54;;;;;;;;;;;;;;;;;;5096376;28;19908;-73
2022/04/18 05:02:20;;;;;;;;;;;;;;;;;;5096920;28;19908;-76
2022/04/18 05:04:46;;;;;;;;;;;;;;;;;;5097112;28;19916;-76
2022/04/18 05:07:12;;;;;;;;;;;;;;;;;;5096120;28;20008;-76
2022/04/18 05:09:38;;;;;;;;;;;;;;;;;;5096518;28;20379;-76
2022/04/18 05:12:04;;;;;;;;;;;;;;;;;;5096917;28;19908;-77
2022/04/18 05:14:30;;;;;;;;;;;;;;;;;;5095584;28;20006;-76
2022/04/18 05:16:56;;;;;;;;;;;;;;;;;;5077284;28;19919;-77
2022/04/18 05:19:22;;;;;;;;;;;;;;;;;;5093906;28;19998;-77
2022/04/18 05:21:48;;;;;;;;;;;;;;;;;;5067182;28;19950;-72
2022/04/18 05:24:14;;;;;;;;;;;;;;;;;;5086374;28;19966;-72
2022/04/18 05:26:40;;;;;;;;;;;;;;;;;;5089971;28;19920;-73
2022/04/18 05:29:06;;;;;;;;;;;;;;;;;;5095085;28;20322;-74
2022/04/18 05:31:32;;;;;;;;;;;;;;;;;;5094719;28;19908;-73
2022/04/18 05:33:58;;;;;;;;;;;;;;;;;;5094580;28;20345;-74
2022/04/18 05:36:24;;;;;;;;;;;;;;;;;;5095110;28;19962;-72
2022/04/18 05:38:50;;;;;;;;;;;;;;;;;;5094128;28;20388;-74
2022/04/18 05:41:16;;;;;;;;;;;;;;;;;;5093857;28;19954;-73
2022/04/18 05:43:42;;;;;;;;;;;;;;;;;;5093145;28;19923;-76
2022/04/18 05:46:08;;;;;;;;;;;;;;;;;;5095074;28;19916;-78
2022/04/18 05:48:34;;;;;;;;;;;;;;;;;;5095069;28;19912;-77
2022/04/18 05:51:00;;;;;;;;;;;;;;;;;;5094703;28;19966;-75
2022/04/18 05:53:26;;;;;;;;;;;;;;;;;;5094657;28;20304;-75
2022/04/18 05:55:52;;;;;;;;;;;;;;;;;;5095112;28;19912;-76
2022/04/18 05:58:18;;;;;;;;;;;;;;;;;;5087697;28;19912;-77
2022/04/18 06:00:44;;;;;;;;;;;;;;;;;;5094199;28;19918;-75
2022/04/18 06:03:10;;;;;;;;;;;;;;;;;;5095567;28;20284;-75
2022/04/18 06:05:36;;;;;;;;;;;;;;;;;;5095467;28;19916;-76
2022/04/18 06:08:03;;;;;;;;;;;;;;;;;;5095119;28;20322;-72
2022/04/18 06:10:29;;;;;;;;;;;;;;;;;;5093043;28;19912;-77
2022/04/18 06:12:55;;;;;;;;;;;;;;;;;;5081273;28;19934;-74
2022/04/18 06:15:21;;;;;;;;;;;;;;;;;;5058164;28;19939;-74
2022/04/18 06:17:47;;;;;;;;;;;;;;;;;;5092789;28;19958;-74
2022/04/18 06:20:13;;;;;;;;;;;;;;;;;;5072717;28;20451;-76
2022/04/18 06:22:39;;;;;;;;;;;;;;;;;;5075812;28;20288;-77
2022/04/18 06:25:05;;;;;;;;;;;;;;;;;;5092681;28;19931;-76
2022/04/18 06:27:31;;;;;;;;;;;;;;;;;;5094583;28;20010;-78
2022/04/18 06:29:57;;;;;;;;;;;;;;;;;;5092910;28;19908;-77
2022/04/18 06:32:25;;;;;;;;;;;;;;;;;;5085171;28;20415;-79
2022/04/18 06:34:51;;;;;;;;;;;;;;;;;;5090473;28;19916;-76
2022/04/18 06:37:17;;;;;;;;;;;;;;;;;;5055928;28;19908;-77
2022/04/18 06:39:43;;;;;;;;;;;;;;;;;;5080618;28;20384;-74
2022/04/18 06:42:09;;;;;;;;;;;;;;;;;;5093404;28;19912;-72
2022/04/18 06:44:35;;;;;;;;;;;;;;;;;;5093647;28;19916;-77
2022/04/18 06:47:01;;;;;;;;;;;;;;;;;;5091963;28;20045;-75
2022/04/18 06:49:27;;;;;;;;;;;;;;;;;;5082683;28;19912;-74
2022/04/18 06:51:53;;;;;;;;;;;;;;;;;;5089193;28;19926;-74
2022/04/18 06:54:19;;;;;;;;;;;;;;;;;;5085333;28;19957;-76
2022/04/18 06:57:01;;;;;;;;;;;;;;;;;;5072096;28;19912;-75
2022/04/18 06:59:27;;;;;;;;;;;;;;;;;;5092656;28;19934;-77
2022/04/18 07:01:53;;;;;;;;;;;;;;;;;;5084327;28;19920;-74
2022/04/18 07:04:19;;;;;;;;;;;;;;;;;;5090590;28;20539;-74
2022/04/18 07:06:46;;;;;;;;;;;;;;;;;;5090246;28;20769;-75
2022/04/18 07:09:12;;;;;;;;;;;;;;;;;;5090964;28;19912;-76
2022/04/18 07:11:40;;;;;;;;;;;;;;;;;;5092110;28;19944;-75
2022/04/18 07:14:06;;;;;;;;;;;;;;;;;;5088818;28;19912;-73
2022/04/18 07:16:32;;;;;;;;;;;;;;;;;;5091286;28;19995;-74
2022/04/18 07:18:58;;;;;;;;;;;;;;;;;;5089706;28;19919;-74
2022/04/18 07:21:24;;;;;;;;;;;;;;;;;;5089868;28;19908;-73
2022/04/18 07:23:50;;;;;;;;;;;;;;;;;;5093058;28;19965;-75
2022/04/18 07:26:16;;;;;;;;;;;;;;;;;;5106263;28;20045;-77
2022/04/18 07:28:42;;;;;;;;;;;;;;;;;;5089952;28;20451;-76
2022/04/18 07:31:08;;;;;;;;;;;;;;;;;;5092448;28;19909;-76
2022/04/18 07:33:35;;;;;;;;;;;;;;;;;;5092420;28;20049;-73
2022/04/18 07:36:02;;;;;;;;;;;;;;;;;;5073395;28;19912;-74
2022/04/18 07:41:14;;;;;;;;;;;;;;;;;;5093129;28;19919;-76
2022/04/18 07:43:40;;;;;;;;;;;;;;;;;;5092410;28;19955;-74
2022/04/18 07:46:06;;;;;;;;;;;;;;;;;;5077059;28;19947;-78
2022/04/18 07:48:31;;;;;;;;;;;;;;;;;;5092512;28;20403;-77
2022/04/18 07:53:42;;;;;;;;;;;;;;;;;;5091439;28;20323;-78
2022/04/18 07:56:08;;;;;;;;;;;;;;;;;;5088536;28;19916;-82
2022/04/18 07:58:34;;;;;;;;;;;;;;;;;;5091133;28;19912;-82
2022/04/18 08:01:00;;;;;;;;;;;;;;;;;;5071909;28;19916;-80
2022/04/18 08:03:26;;;;;;;;;;;;;;;;;;5090191;28;19912;-78
2022/04/18 08:05:52;;;;;;;;;;;;;;;;;;5072956;28;19916;-77
2022/04/18 08:08:18;;;;;;;;;;;;;;;;;;5089999;28;20037;-77
2022/04/18 08:10:45;;;;;;;;;;;;;;;;;;5088055;28;20515;-76
2022/04/18 08:13:11;;;;;;;;;;;;;;;;;;5074201;28;19916;-77
2022/04/18 08:15:37;;;;;;;;;;;;;;;;;;5090582;28;19969;-81
2022/04/18 08:18:03;;;;;;;;;;;;;;;;;;5092261;28;19912;-79
2022/04/18 08:20:29;;;;;;;;;;;;;;;;;;5091760;28;19927;-77
2022/04/18 08:22:55;;;;;;;;;;;;;;;;;;5092286;28;19953;-81
2022/04/18 08:25:21;;;;;;;;;;;;;;;;;;5092401;28;19927;-82
2022/04/18 08:27:47;;;;;;;;;;;;;;;;;;5093047;28;19913;-79
2022/04/18 08:30:13;;;;;;;;;;;;;;;;;;5090810;28;20462;-80
2022/04/18 08:32:39;;;;;;;;;;;;;;;;;;5089757;28;19912;-80
2022/04/18 08:35:05;;;;;;;;;;;;;;;;;;5092444;28;19908;-80
2022/04/18 08:37:31;;;;;;;;;;;;;;;;;;5082056;28;19916;-80
2022/04/18 08:39:57;;;;;;;;;;;;;;;;;;5086302;28;19912;-80
2022/04/18 08:42:23;;;;;;;;;;;;;;;;;;5090997;28;20021;-86
2022/04/18 08:44:49;;;;;;;;;;;;;;;;;;5088598;28;20015;-78
2022/04/18 08:52:43;;;;;;;;;;;;;;;;;;5076489;28;20010;-79
2022/04/18 08:52:46;;;;;;;;;;;;;;;;;;5092781;28;19918;-75
2022/04/18 08:55:12;;;;;;;;;;;;;;;;;;5095775;28;19908;-78
2022/04/18 08:57:39;;;;;;;;;;;;;;;;;;5095870;28;19908;-75
2022/04/18 09:00:06;;;;;;;;;;;;;;;;;;5093792;28;19931;-78
2022/04/18 09:02:32;;;;;;;;;;;;;;;;;;5093835;28;19998;-75
2022/04/18 09:04:58;;;;;;;;;;;;;;;;;;5094244;28;20062;-77
2022/04/18 09:07:24;;;;;;;;;;;;;;;;;;5093534;28;19908;-75
2022/04/18 09:09:54;;;;;;;;;;;;;;;;;;5077329;28;19969;-75
2022/04/18 09:12:20;;;;;;;;;;;;;;;;;;5076129;28;20007;-76
2022/04/18 09:14:48;;;;;;;;;;;;;;;;;;5079942;28;19908;-76
2022/04/18 09:17:14;;;;;;;;;;;;;;;;;;5094006;28;20361;-79
2022/04/18 09:19:40;;;;;;;;;;;;;;;;;;5094289;28;19995;-80
2022/04/18 09:22:07;;;;;;;;;;;;;;;;;;5086262;28;19916;-77
2022/04/18 09:24:34;;;;;;;;;;;;;;;;;;5088604;28;19928;-78
2022/04/18 09:27:00;;;;;;;;;;;;;;;;;;5094057;28;19916;-76
2022/04/18 09:29:26;;;;;;;;;;;;;;;;;;5093771;28;19908;-77
2022/04/18 09:31:52;;;;;;;;;;;;;;;;;;5094318;28;19999;-75
2022/04/18 09:34:20;;;;;;;;;;;;;;;;;;5086854;28;20002;-73
2022/04/18 09:36:46;;;;;;;;;;;;;;;;;;5084355;28;19916;-72
2022/04/18 09:39:12;;;;;;;;;;;;;;;;;;5074011;28;19920;-74
2022/04/18 09:41:38;;;;;;;;;;;;;;;;;;5073615;28;20379;-73
2022/04/18 09:44:04;;;;;;;;;;;;;;;;;;5058011;28;19912;-75
2022/04/18 09:46:33;;;;;;;;;;;;;;;;;;5092903;28;19920;-73
2022/04/18 09:49:18;;;;;;;;;;;;;;;;;;5100517;27;20335;-77
2022/04/18 09:51:44;;;;;;;;;;;;;;;;;;5066181;28;19917;-74
2022/04/18 09:54:11;;;;;;;;;;;;;;;;;;5067810;28;19971;-75
2022/04/18 09:56:37;;;;;;;;;;;;;;;;;;5067818;28;19917;-76
2022/04/18 09:59:04;;;;;;;;;;;;;;;;;;5069473;28;19931;-77
2022/04/18 10:01:30;;;;;;;;;;;;;;;;;;5068698;28;19940;-75
2022/04/18 10:03:56;;;;;;;;;;;;;;;;;;5068050;28;19912;-73
2022/04/18 10:06:22;;;;;;;;;;;;;;;;;;5069033;28;20019;-73
2022/04/18 10:08:49;;;;;;;;;;;;;;;;;;5069606;28;20366;-74
2022/04/18 10:11:16;;;;;;;;;;;;;;;;;;5067943;28;20004;-74
2022/04/18 10:17:23;;;;;;;;;;;;;;;;;;5135609;27;20022;-73
2022/04/18 10:22:19;;;;;;;;;;;;;;;;;;5102495;27;19952;-76
2022/04/18 10:26:50;;;;;;;;;;;;;;;;;;5102778;27;19919;-73
2022/04/18 10:30:35;;;;;;;;;;;;;;;;;;5102380;27;19913;-72
2022/04/18 10:33:01;;;;;;;;;;;;;;;;;;5070102;28;19920;-73
2022/04/18 10:38:04;;;;;;;;;;;;;;;;;;5086732;27;19924;-76
2022/04/18 10:40:30;;;;;;;;;;;;;;;;;;5048891;28;19913;-74
2022/04/18 10:42:56;;;;;;;;;;;;;;;;;;5049735;28;19909;-75
2022/04/18 10:45:26;;;;;;;;;;;;;;;;;;5049559;28;19913;-75
2022/04/18 10:49:38;;;;;;;;;;;;;;;;;;5154618;27;20078;-73
2022/04/18 10:54:25;;;;;;;;;;;;;;;;;;5149305;27;20359;-77
2022/04/18 10:58:29;;;;;;;;;;;;;;;;;;5101405;27;20141;-76
2022/04/18 11:03:02;;;;;;;;;;;;;;;;;;5101810;27;20399;-73
2022/04/18 11:09:53;;;;;;;;;;;;;;;;;;5104804;27;20008;-72
2022/04/18 11:12:19;;;;;;;;;;;;;;;;;;5070853;28;20369;-73
2022/04/18 11:14:45;;;;;;;;;;;;;;;;;;5070509;28;19962;-73
2022/04/18 11:17:11;;;;;;;;;;;;;;;;;;5069706;28;20449;-74
2022/04/18 11:19:37;;;;;;;;;;;;;;;;;;5070622;28;20377;-75
2022/04/18 11:22:04;;;;;;;;;;;;;;;;;;5070895;28;19909;-77
2022/04/18 11:24:30;;;;;;;;;;;;;;;;;;5070987;28;19916;-73
2022/04/18 11:26:56;;;;;;;;;;;;;;;;;;5070383;28;19913;-76
2022/04/18 11:29:22;;;;;;;;;;;;;;;;;;5069463;28;19979;-72
2022/04/18 11:31:48;;;;;;;;;;;;;;;;;;5070546;28;20278;-72
2022/04/18 11:34:14;;;;;;;;;;;;;;;;;;5068913;28;19916;-72
2022/04/18 11:36:40;;;;;;;;;;;;;;;;;;5070611;28;19912;-72
2022/04/18 11:39:06;;;;;;;;;;;;;;;;;;5070469;28;19909;-72
2022/04/18 11:41:32;;;;;;;;;;;;;;;;;;5070177;28;19915;-74
2022/04/18 11:43:58;;;;;;;;;;;;;;;;;;5068986;28;19916;-74
2022/04/18 11:46:24;;;;;;;;;;;;;;;;;;5070391;28;19909;-75
2022/04/18 11:48:50;;;;;;;;;;;;;;;;;;5069763;28;20441;-74
2022/04/18 11:51:16;;;;;;;;;;;;;;;;;;5070361;28;19909;-75
2022/04/18 11:53:42;;;;;;;;;;;;;;;;;;5070162;28;20360;-74
2022/04/18 11:56:08;;;;;;;;;;;;;;;;;;5068535;28;20258;-74
2022/04/18 11:58:35;;;;;;;;;;;;;;;;;;5068641;28;19970;-73
2022/04/18 12:06:46;;;;;;;;;;;;;;;;;;5070111;28;20008;-75
2022/04/18 12:09:12;;;;;;;;;;;;;;;;;;5067983;28;19920;-73
2022/04/18 12:11:38;;;;;;;;;;;;;;;;;;5069753;28;19909;-72
2022/04/18 12:14:04;;;;;;;;;;;;;;;;;;5069912;28;20007;-75
2022/04/18 12:16:30;;;;;;;;;;;;;;;;;;5069443;28;19916;-73
2022/04/18 12:18:57;;;;;;;;;;;;;;;;;;5069247;28;19909;-73
2022/04/18 12:21:23;;;;;;;;;;;;;;;;;;5055822;28;19916;-72
2022/04/18 12:23:49;;;;;;;;;;;;;;;;;;5055766;28;19909;-71
2022/04/18 12:26:15;;;;;;;;;;;;;;;;;;5056198;28;19908;-72
2022/04/18 12:28:41;;;;;;;;;;;;;;;;;;5054821;28;19921;-74
2022/04/18 12:31:08;;;;;;;;;;;;;;;;;;5055787;28;19909;-76
2022/04/18 12:33:34;;;;;;;;;;;;;;;;;;5055843;28;20369;-72
2022/04/18 12:36:00;;;;;;;;;;;;;;;;;;5054648;28;19916;-74
2022/04/18 12:38:26;;;;;;;;;;;;;;;;;;5054145;28;20276;-73
2022/04/18 12:40:52;;;;;;;;;;;;;;;;;;5055649;28;19936;-72
2022/04/18 12:43:18;;;;;;;;;;;;;;;;;;5055399;28;19916;-72
2022/04/18 12:45:44;;;;;;;;;;;;;;;;;;5055081;28;19917;-72
2022/04/18 12:48:10;;;;;;;;;;;;;;;;;;5055821;28;20003;-72
2022/04/18 12:50:36;;;;;;;;;;;;;;;;;;5055087;28;19995;-72
2022/04/18 12:53:02;;;;;;;;;;;;;;;;;;5053835;28;20440;-72
2022/04/18 12:55:29;;;;;;;;;;;;;;;;;;5054474;28;19944;-72
2022/04/18 12:57:55;;;;;;;;;;;;;;;;;;5055722;28;20471;-72
2022/04/18 13:00:21;;;;;;;;;;;;;;;;;;5055349;28;20369;-72
2022/04/18 13:02:47;;;;;;;;;;;;;;;;;;5054433;28;19915;-72
2022/04/18 13:05:13;;;;;;;;;;;;;;;;;;5055339;28;19934;-72
2022/04/18 13:07:40;;;;;;;;;;;;;;;;;;5055426;28;19986;-71
2022/04/18 13:10:06;;;;;;;;;;;;;;;;;;5054511;28;19915;-72
2022/04/18 13:12:33;;;;;;;;;;;;;;;;;;5055182;28;19909;-72
2022/04/18 13:14:59;;;;;;;;;;;;;;;;;;5055440;28;19962;-72
2022/04/18 13:17:25;;;;;;;;;;;;;;;;;;5055504;28;19948;-72
2022/04/18 13:19:51;;;;;;;;;;;;;;;;;;5053821;28;19948;-72
2022/04/18 13:22:17;;;;;;;;;;;;;;;;;;5054104;28;19954;-72
2022/04/18 13:24:43;;;;;;;;;;;;;;;;;;5055361;28;19947;-71
2022/04/18 13:27:09;;;;;;;;;;;;;;;;;;5053423;28;20013;-72
2022/04/18 13:29:35;;;;;;;;;;;;;;;;;;5054987;28;20262;-71
2022/04/18 13:34:16;;;;;;;;;;;;;;;;;;5106790;27;19952;-71
2022/04/18 13:36:44;;;;;;;;;;;;;;;;;;5091388;28;19912;-72
2022/04/18 13:39:10;;;;;;;;;;;;;;;;;;5090032;28;19909;-71
2022/04/18 13:41:36;;;;;;;;;;;;;;;;;;5090897;28;19981;-71
2022/04/18 13:44:02;;;;;;;;;;;;;;;;;;5091305;28;20280;-71
2022/04/18 13:46:28;;;;;;;;;;;;;;;;;;5090430;28;19916;-70
2022/04/18 13:48:54;;;;;;;;;;;;;;;;;;5090700;28;20284;-70
2022/04/18 13:51:20;;;;;;;;;;;;;;;;;;5091148;28;20272;-71
2022/04/18 13:53:46;;;;;;;;;;;;;;;;;;5089598;28;19927;-71
2022/04/18 13:56:12;;;;;;;;;;;;;;;;;;5090546;28;19936;-72
2022/04/18 13:58:39;;;;;;;;;;;;;;;;;;5090878;28;19962;-72
2022/04/18 14:01:05;;;;;;;;;;;;;;;;;;5090879;28;19909;-72
2022/04/18 14:03:31;;;;;;;;;;;;;;;;;;5089002;28;19916;-71
2022/04/18 14:05:57;;;;;;;;;;;;;;;;;;5089540;28;19913;-72
2022/04/18 14:08:23;;;;;;;;;;;;;;;;;;5089590;28;19959;-71
2022/04/18 14:10:49;;;;;;;;;;;;;;;;;;5089800;28;20297;-71
2022/04/18 14:13:16;;;;;;;;;;;;;;;;;;5089293;28;19923;-71
2022/04/18 14:21:11;;;;;;;;;;;;;;;;;;5090379;28;19915;-71
2022/04/18 14:23:37;;;;;;;;;;;;;;;;;;5089896;28;19908;-71
2022/04/18 14:26:03;;;;;;;;;;;;;;;;;;5089386;28;20277;-71
2022/04/18 14:28:29;;;;;;;;;;;;;;;;;;5090322;28;19909;-70
2022/04/18 14:30:55;;;;;;;;;;;;;;;;;;5088554;28;19908;-70
2022/04/18 14:33:21;;;;;;;;;;;;;;;;;;5089983;28;19927;-70
2022/04/18 14:35:47;;;;;;;;;;;;;;;;;;5088713;28;19915;-71
2022/04/18 14:38:15;;;;;;;;;;;;;;;;;;5088541;28;19909;-71
2022/04/18 14:40:43;;;;;;;;;;;;;;;;;;5090173;28;19955;-71
2022/04/18 14:43:14;;;;;;;;;;;;;;;;;;5090072;28;20360;-71
2022/04/18 14:45:40;;;;;;;;;;;;;;;;;;5075952;28;19908;-70
2022/04/18 14:48:05;;;;;;;;;;;;;;;;;;5073002;28;19915;-71
2022/04/18 14:50:31;;;;;;;;;;;;;;;;;;5075687;28;19916;-71
2022/04/18 14:52:57;;;;;;;;;;;;;;;;;;5074832;28;19916;-71
2022/04/18 14:55:23;;;;;;;;;;;;;;;;;;5076348;28;19943;-71
2022/04/18 14:57:50;;;;;;;;;;;;;;;;;;5075954;28;19997;-71
2022/04/18 15:00:16;;;;;;;;;;;;;;;;;;5076198;28;20353;-70
2022/04/18 15:02:44;;;;;;;;;;;;;;;;;;5076146;28;19909;-71
2022/04/18 15:05:10;;;;;;;;;;;;;;;;;;5075706;28;19975;-71
2022/04/18 15:07:36;;;;;;;;;;;;;;;;;;5076143;28;20378;-70
2022/04/18 15:10:02;;;;;;;;;;;;;;;;;;5076145;28;19915;-70
2022/04/18 15:12:28;;;;;;;;;;;;;;;;;;5075681;28;20276;-71
2022/04/18 15:14:54;;;;;;;;;;;;;;;;;;5076058;28;20008;-71
2022/04/18 15:17:20;;;;;;;;;;;;;;;;;;5075920;28;19916;-70
2022/04/18 15:19:46;;;;;;;;;;;;;;;;;;5074249;28;19909;-71
2022/04/18 15:22:12;;;;;;;;;;;;;;;;;;5075871;28;19969;-70
2022/04/18 15:24:40;;;;;;;;;;;;;;;;;;5075785;28;19909;-70
2022/04/18 15:27:06;;;;;;;;;;;;;;;;;;5075327;28;19986;-71
2022/04/18 15:29:34;;;;;;;;;;;;;;;;;;5075696;28;19908;-70
2022/04/18 15:32:06;;;;;;;;;;;;;;;;;;5074095;28;19909;-70
2022/04/18 15:34:32;;;;;;;;;;;;;;;;;;5075322;28;19961;-69
2022/04/18 15:36:58;;;;;;;;;;;;;;;;;;5075807;28;20050;-70
2022/04/18 15:39:24;;;;;;;;;;;;;;;;;;5074352;28;19954;-70
2022/04/18 15:41:50;;;;;;;;;;;;;;;;;;5075122;28;19916;-70
2022/04/18 15:44:16;;;;;;;;;;;;;;;;;;5075622;28;19909;-70
2022/04/18 15:46:43;;;;;;;;;;;;;;;;;;5075590;28;19995;-71
2022/04/18 15:49:10;;;;;;;;;;;;;;;;;;5075057;28;19912;-70
2022/04/18 15:51:36;;;;;;;;;;;;;;;;;;5075539;28;19908;-70
2022/04/18 15:54:02;;;;;;;;;;;;;;;;;;5075336;28;19923;-71
2022/04/18 15:56:28;;;;;;;;;;;;;;;;;;5073925;28;19952;-71
2022/04/18 15:59:00;;;;;;;;;;;;;;;;;;5075143;28;20414;-71
2022/04/18 16:01:26;;;;;;;;;;;;;;;;;;5075060;28;20010;-71
2022/04/18 16:03:52;;;;;;;;;;;;;;;;;;5075091;28;19909;-70
2022/04/18 16:06:18;;;;;;;;;;;;;;;;;;5075120;28;19908;-71
2022/04/18 16:08:44;;;;;;;;;;;;;;;;;;5073340;28;19908;-70
2022/04/18 16:11:10;;;;;;;;;;;;;;;;;;5074931;28;19998;-70
2022/04/18 16:13:36;;;;;;;;;;;;;;;;;;5074864;28;19916;-72
2022/04/18 16:16:02;;;;;;;;;;;;;;;;;;5074475;28;19989;-70
2022/04/18 16:18:29;;;;;;;;;;;;;;;;;;5074757;28;20345;-71
2022/04/18 16:20:55;;;;;;;;;;;;;;;;;;5074848;28;19909;-72
2022/04/18 16:23:20;;;;;;;;;;;;;;;;;;5074141;28;19932;-71
2022/04/18 16:25:46;;;;;;;;;;;;;;;;;;5073346;28;19912;-71
2022/04/18 16:28:12;;;;;;;;;;;;;;;;;;5073217;28;19908;-71
2022/04/18 16:33:23;;;;;;;;;;;;;;;;;;5074284;28;19927;-72
2022/04/18 16:35:50;;;;;;;;;;;;;;;;;;5074493;28;19909;-71
2022/04/18 16:38:16;;;;;;;;;;;;;;;;;;5074158;28;19908;-72
2022/04/18 16:45:48;;;;;;;;;;;;;;;;;;5074401;28;19908;-72
2022/04/18 16:46:12;;;;;;;;;;;;;;;;;;5074308;28;19915;-74
2022/04/18 16:48:38;;;;;;;;;;;;;;;;;;5072956;28;20378;-72
2022/04/18 16:51:06;;;;;;;;;;;;;;;;;;5073837;28;19909;-72
2022/04/18 16:53:32;;;;;;;;;;;;;;;;;;5073974;28;19917;-71
2022/04/18 16:55:58;;;;;;;;;;;;;;;;;;5074073;28;19915;-71
2022/04/18 16:58:24;;;;;;;;;;;;;;;;;;5074004;28;19908;-72
2022/04/18 17:00:50;;;;;;;;;;;;;;;;;;5074027;28;19962;-71
2022/04/18 17:03:16;;;;;;;;;;;;;;;;;;5073899;28;20319;-71
2022/04/18 17:05:42;;;;;;;;;;;;;;;;;;5073676;28;20292;-71
2022/04/18 17:08:08;;;;;;;;;;;;;;;;;;5073719;28;19915;-71
2022/04/18 17:10:34;;;;;;;;;;;;;;;;;;5073977;28;19940;-71
2022/04/18 17:13:00;;;;;;;;;;;;;;;;;;5073475;28;20477;-72
2022/04/18 17:15:26;;;;;;;;;;;;;;;;;;5073880;28;19909;-71
2022/04/18 17:17:52;;;;;;;;;;;;;;;;;;5073878;28;19909;-71
2022/04/18 17:20:18;;;;;;;;;;;;;;;;;;5072040;28;20313;-70
2022/04/18 17:22:44;;;;;;;;;;;;;;;;;;5073829;28;19975;-71
2022/04/18 17:25:10;;;;;;;;;;;;;;;;;;5073950;28;19909;-71
2022/04/18 17:27:36;;;;;;;;;;;;;;;;;;5073478;28;19912;-70
2022/04/18 17:30:02;;;;;;;;;;;;;;;;;;5073751;28;19909;-71
2022/04/18 17:32:28;;;;;;;;;;;;;;;;;;5073536;28;19920;-71
2022/04/18 17:34:54;;;;;;;;;;;;;;;;;;5073389;28;19940;-71
2022/04/18 17:37:20;;;;;;;;;;;;;;;;;;5073757;28;19916;-71
2022/04/18 17:39:46;;;;;;;;;;;;;;;;;;5073336;28;19912;-71
2022/04/18 17:42:12;;;;;;;;;;;;;;;;;;5073694;28;19908;-71